AirNav   TITAN Aviation Fuels
 
 465 users online  

1SC1 Lagniappe STOL Field Airport
Pelzer, South Carolina, USA


FAA INFORMATION EFFECTIVE 03 NOVEMBER 2022

Location

FAA Identifier: 1SC1
Lat/Long: 34-39-13.4820N 082-33-17.9280W
34-39.224700N 082-33.298800W
34.6537450,-82.5549800
(estimated)
Elevation: 875 ft. / 267 m (estimated)
From city: 4 miles W of PELZER, SC
Time zone: UTC +0 (year round; does not observe DST)
Zip code: 29673

Airport Operations

Airport use: Private use. Permission required prior to landing
Activation date: 03/2022
Control tower: no
ARTCC: ATLANTA CENTER
FSS: ANDERSON FLIGHT SERVICE STATION
Attendance: 
Segmented circle: no

Airport Communications

CTAF: 122.9
WX AWOS-3 at GYH (11 nm NE): 127.325 (864-277-5674)
WX AWOS-3 at LQK (12 nm NW): 120.0 (864-843-5801)
WX ASOS at AND (12 nm SW): 120.675 (864-226-9522)
WX ASOS at GMU (15 nm NE): 127.075 (864-239-0014)
WX ASOS at CEU (16 nm W): 119.275 (864-653-8855)

Nearby radio navigation aids

VOR radial/distance  VOR name  Freq  Var
ELWr039/18.1ELECTRIC CITY VORTAC108.6000E
GRDr322/31.2GREENWOOD VORTAC115.5001W
ODFr094/36.7FOOTHILLS VOR/DME113.4000E
SPAr236/38.4SPARTANBURG VORTAC115.7002W

 
NDB name  Hdg/Dist  Freq  Var  ID
DYANA252/5.933804WGY --. -.--
JUDKY238/12.652105WGM --. --
BROAD RIVER193/37.437907WBRA -... .-. .-

Airport Services

Runway Information

Runway 16/34

Dimensions: 1329 x 40 ft. / 405 x 12 m
Surface: turf
RUNWAY 16  RUNWAY 34
Latitude: 34-39.326400N34-39.123000N
Longitude: 082-33.348000W082-33.249600W
Elevation: 870.0 ft.865.0 ft.
Traffic pattern: leftleft

Airport Ownership and Management from official FAA records

Ownership: Privately-owned
Owner: SAMUEL S. MCNAIR JR.
PO BOX 6
PELZER, SC 29669-0006
Phone 864-617-3192
Manager: SAMUEL S. MCNAIR JR.
PO BOX 6
PELZER, SC 29669-0006
Phone 864-617-3192

Instrument Procedures

There are no published instrument procedures at 1SC1.

Some nearby airports with instrument procedures:

KGYH - Donaldson Field Airport (11 nm NE)
KLQK - Pickens County Airport (12 nm NW)
KAND - Anderson Regional Airport (12 nm SW)
KGMU - Greenville Downtown Airport (15 nm NE)
KCEU - Oconee County Regional Airport (16 nm W)
 
Loc | Ops | Rwys | IFR | FBO | Links
Com | Nav | Svcs | Stats | Notes
Aerial photo
No photo
 
Airport distance calculator
Flying to Lagniappe STOL Field Airport? Find the distance to fly.

From to 1SC1

Sunrise and sunset
Times for 29-Nov-2022
 Zulu (UTC)
Morning civil twilight11:51
Sunrise12:18
Sunset22:19
Evening civil twilight22:46

Current date and time
Zulu (UTC)  29-Nov-2022 09:12:51
 
METAR
KGYH 
11nm NE 
290835Z AUTO 05006KT 10SM CLR 08/04 A3012 RMK A02 T00780042
KLQK 
12nm NW 
290855Z AUTO 10SM CLR 02/02 A3011 RMK AO2 T00210021
KAND 
12nm SW 
290856Z AUTO 04004KT 10SM CLR 04/03 A3010 RMK AO2 SLP190 T00440033 50007
KGMU 
16nm NE 
290853Z AUTO 04008KT 10SM CLR 09/03 A3012 RMK AO2 SLP197 T00890033 50007
KCEU 
16nm W 
290854Z AUTO 02004KT 10SM CLR 08/04 A3011 RMK AO2 SLP193 T00830044 51008
TAF
KAND 
12nm SW 
290525Z 2906/3006 00000KT P6SM SKC FM291300 06004KT P6SM SKC FM292300 11004KT P6SM SCT050 BKN250 FM300200 08003KT P6SM BKN040 PROB30 3004/3006 4SM -SHRA BR OVC025
KGMU 
16nm NE 
290525Z 2906/3006 04006KT P6SM SKC FM291400 06006KT P6SM SKC FM291800 14005KT P6SM SKC FM292300 09004KT P6SM SCT080 BKN250 PROB30 3004/3006 4SM -SHRA BR OVC025
NOTAMs
Click for the latest NOTAMs
NOTAMs are issued by the DoD/FAA and will open in a separate window not controlled by AirNav.

 

 
 

Would you like to see your business listed on this page?

 If your business provides an interesting product or service to pilots, flight crews, aircraft, or users of the Lagniappe STOL Field Airport, you should consider listing it here.  To start the listing process, click on the button below
 
Add a business
 

Other Pages about Lagniappe STOL Field Airport

Update a link
 
Copyright © AirNav, LLC. All rights reserved. Privacy Policy  Contact